createdAt,value
2023-02-19T00:01:38.166Z,5.30
2023-02-19T00:04:17.297Z,5.78
2023-02-19T00:06:46.080Z,6.55
2023-02-19T00:09:14.949Z,5.65
2023-02-19T00:11:43.032Z,5.97
2023-02-19T00:14:14.702Z,4.88
2023-02-19T00:16:41.770Z,5.15
2023-02-19T00:19:15.930Z,5.38
2023-02-19T00:21:43.019Z,5.00
2023-02-19T00:24:13.087Z,5.15
2023-02-19T00:26:41.301Z,6.25
2023-02-19T00:29:09.871Z,5.25
2023-02-19T00:31:37.078Z,5.13
2023-02-19T00:34:06.160Z,5.90
2023-02-19T00:36:37.928Z,6.90
2023-02-19T00:39:08.338Z,4.75
2023-02-19T00:41:35.793Z,5.13
2023-02-19T00:44:05.444Z,5.05
2023-02-19T00:46:36.827Z,5.40
2023-02-19T00:49:05.608Z,6.20
2023-02-19T00:51:35.320Z,5.50
2023-02-19T00:54:04.103Z,6.00
2023-02-19T00:56:31.336Z,6.70
2023-02-19T00:58:58.689Z,7.63
2023-02-19T01:01:26.021Z,5.60
2023-02-19T01:03:53.156Z,5.38
2023-02-19T01:06:21.287Z,5.53
2023-02-19T01:08:49.455Z,6.30
2023-02-19T01:11:18.162Z,4.88
2023-02-19T01:13:45.213Z,5.65
2023-02-19T01:16:21.121Z,5.13
2023-02-19T01:18:49.102Z,7.45
2023-02-19T01:21:23.883Z,5.68
2023-02-19T01:23:52.282Z,5.63
2023-02-19T01:26:22.184Z,5.72
2023-02-19T01:28:49.500Z,5.30
2023-02-19T01:31:19.863Z,5.88
2023-02-19T01:33:47.988Z,5.18
2023-02-19T01:36:15.743Z,5.47
2023-02-19T01:38:43.248Z,5.85
2023-02-19T01:41:13.779Z,6.03
2023-02-19T01:43:56.160Z,6.00
2023-02-19T01:46:36.909Z,5.40
2023-02-19T01:49:14.461Z,6.13
2023-02-19T01:51:49.432Z,5.22
2023-02-19T01:54:21.911Z,6.38
2023-02-19T01:56:50.063Z,5.50
2023-02-19T01:59:18.496Z,6.53
2023-02-19T02:01:46.025Z,5.43
2023-02-19T02:04:15.666Z,4.55
2023-02-19T02:06:55.794Z,5.78
2023-02-19T02:09:46.234Z,5.05
2023-02-19T02:12:13.773Z,4.78
2023-02-19T02:14:44.275Z,6.32
2023-02-19T02:17:32.422Z,5.50
2023-02-19T02:20:14.643Z,4.40
2023-02-19T02:23:16.929Z,5.32
2023-02-19T02:25:59.118Z,6.03
2023-02-19T02:29:18.607Z,4.32
2023-02-19T02:32:03.938Z,5.57
2023-02-19T02:34:41.741Z,5.03
2023-02-19T02:37:10.935Z,5.40
2023-02-19T02:39:40.207Z,5.32
2023-02-19T02:42:26.386Z,4.25
2023-02-19T02:45:37.729Z,5.03
2023-02-19T02:48:39.069Z,4.70
2023-02-19T02:51:13.832Z,5.68
2023-02-19T02:54:28.826Z,6.18
2023-02-19T02:56:58.668Z,5.30
2023-02-19T02:59:34.125Z,5.18
2023-02-19T03:02:14.546Z,5.70
2023-02-19T03:05:22.584Z,5.60
2023-02-19T03:07:54.177Z,5.70
2023-02-19T03:10:36.688Z,4.35
2023-02-19T03:13:26.672Z,4.72
2023-02-19T03:16:23.751Z,5.18
2023-02-19T03:19:13.599Z,5.03
2023-02-19T03:21:43.718Z,6.20
2023-02-19T03:24:32.057Z,5.07
2023-02-19T03:27:02.124Z,5.57
2023-02-19T03:29:37.862Z,4.55
2023-02-19T03:32:28.129Z,5.70
2023-02-19T03:35:22.225Z,4.75
2023-02-19T03:38:18.750Z,4.65
2023-02-19T03:41:16.246Z,5.97
2023-02-19T03:43:56.696Z,6.28
2023-02-19T03:46:42.181Z,5.50
2023-02-19T03:49:33.471Z,6.22
2023-02-19T03:52:18.123Z,5.38
2023-02-19T03:55:10.467Z,4.15
2023-02-19T03:57:51.618Z,6.85
2023-02-19T04:00:32.666Z,5.50
2023-02-19T04:03:26.982Z,5.18
2023-02-19T04:06:01.627Z,5.95
2023-02-19T04:08:30.015Z,5.17
2023-02-19T04:11:03.219Z,4.60
2023-02-19T04:13:41.911Z,5.72
2023-02-19T04:16:17.502Z,5.93
2023-02-19T04:18:49.673Z,6.25
2023-02-19T04:21:17.930Z,6.05
2023-02-19T04:23:45.931Z,4.63
2023-02-19T04:26:15.437Z,5.90
2023-02-19T04:28:44.292Z,5.45
2023-02-19T04:31:11.892Z,5.38
2023-02-19T04:33:39.130Z,6.28
2023-02-19T04:36:07.854Z,5.03
2023-02-19T04:38:34.821Z,4.15
2023-02-19T04:41:02.009Z,5.13
2023-02-19T04:43:29.046Z,5.55
2023-02-19T04:46:00.911Z,5.35
2023-02-19T04:48:29.133Z,4.90
2023-02-19T04:50:56.411Z,4.65
2023-02-19T04:53:23.565Z,4.15
2023-02-19T04:55:53.427Z,4.68
2023-02-19T04:58:21.257Z,4.93
2023-02-19T05:00:52.638Z,4.63
2023-02-19T05:03:19.899Z,4.57
2023-02-19T05:05:47.157Z,3.53
2023-02-19T05:08:14.223Z,5.07
2023-02-19T05:10:41.696Z,4.43
2023-02-19T05:13:08.862Z,4.18
2023-02-19T05:15:36.237Z,4.15
2023-02-19T05:18:03.818Z,5.10
2023-02-19T05:20:30.830Z,4.47
2023-02-19T05:22:57.762Z,4.65
2023-02-19T05:25:24.730Z,4.88
2023-02-19T05:28:11.948Z,4.80
2023-02-19T05:30:38.991Z,4.28
2023-02-19T05:33:05.824Z,4.55
2023-02-19T05:35:32.878Z,5.40
2023-02-19T05:37:59.896Z,4.57
2023-02-19T05:40:27.183Z,5.75
2023-02-19T05:42:54.168Z,5.43
2023-02-19T05:45:21.370Z,3.72
2023-02-19T05:47:48.331Z,4.53
2023-02-19T05:50:15.347Z,4.82
2023-02-19T05:52:43.974Z,5.00
2023-02-19T05:55:12.009Z,3.92
2023-02-19T05:57:43.851Z,4.32
2023-02-19T06:00:18.006Z,4.22
2023-02-19T06:02:45.266Z,4.32
2023-02-19T06:05:12.842Z,4.20
2023-02-19T06:07:40.531Z,3.85
2023-02-19T06:10:08.123Z,3.70
2023-02-19T06:12:35.196Z,4.35
2023-02-19T06:15:02.684Z,3.80
2023-02-19T06:17:29.611Z,4.20
2023-02-19T06:19:56.689Z,4.30
2023-02-19T06:22:24.068Z,4.13
2023-02-19T06:24:51.110Z,4.38
2023-02-19T06:27:18.371Z,4.95
2023-02-19T06:29:45.387Z,4.25
2023-02-19T06:32:12.579Z,4.43
2023-02-19T06:34:39.619Z,4.72
2023-02-19T06:37:06.616Z,4.72
2023-02-19T06:39:33.631Z,4.70
2023-02-19T06:42:00.616Z,5.10
2023-02-19T06:44:28.078Z,4.28
2023-02-19T06:46:56.023Z,4.50
2023-02-19T06:49:23.033Z,3.88
2023-02-19T06:51:50.292Z,4.78
2023-02-19T06:54:17.334Z,4.43
2023-02-19T06:56:47.002Z,3.50
2023-02-19T06:59:18.920Z,3.88
2023-02-19T07:01:46.788Z,4.05
2023-02-19T07:04:14.165Z,4.32
2023-02-19T07:06:41.668Z,4.78
2023-02-19T07:09:09.752Z,3.97
2023-02-19T07:11:39.274Z,5.32
2023-02-19T07:14:08.649Z,5.13
2023-02-19T07:16:36.374Z,4.25
2023-02-19T07:19:04.167Z,3.70
2023-02-19T07:21:31.334Z,4.88
2023-02-19T07:23:59.018Z,4.28
2023-02-19T07:26:26.372Z,4.47
2023-02-19T07:28:53.447Z,5.25
2023-02-19T07:31:23.402Z,4.53
2023-02-19T07:33:51.257Z,5.43
2023-02-19T07:36:20.017Z,5.40
2023-02-19T07:38:47.261Z,5.10
2023-02-19T07:41:14.370Z,4.28
2023-02-19T07:43:41.448Z,4.10
2023-02-19T07:46:13.690Z,4.25
2023-02-19T07:48:42.754Z,4.47
2023-02-19T07:51:13.733Z,4.13
2023-02-19T07:53:41.016Z,5.18
2023-02-19T07:56:11.109Z,4.10
2023-02-19T07:58:38.768Z,3.65
2023-02-19T08:01:10.806Z,5.25
2023-02-19T08:03:38.629Z,3.85
2023-02-19T08:06:06.344Z,4.18
2023-02-19T08:08:33.439Z,4.40
2023-02-19T08:11:21.456Z,4.57
2023-02-19T08:13:50.654Z,3.95
2023-02-19T08:16:29.638Z,4.45
2023-02-19T08:19:00.418Z,4.95
2023-02-19T08:21:27.694Z,3.22
2023-02-19T08:23:54.662Z,3.88
2023-02-19T08:26:21.809Z,3.40
2023-02-19T08:28:49.329Z,3.53
2023-02-19T08:31:16.424Z,4.55
2023-02-19T08:33:43.787Z,3.63
2023-02-19T08:36:12.231Z,3.72
2023-02-19T08:38:39.214Z,3.47
2023-02-19T08:41:12.763Z,4.45
2023-02-19T08:43:41.529Z,3.78
2023-02-19T08:46:10.582Z,3.45
2023-02-19T08:48:38.911Z,4.63
2023-02-19T08:51:09.100Z,4.60
2023-02-19T08:53:37.874Z,3.80
2023-02-19T08:56:10.388Z,4.13
2023-02-19T08:58:38.178Z,4.55
2023-02-19T09:01:13.995Z,4.22
2023-02-19T09:03:41.817Z,4.43
2023-02-19T09:06:13.568Z,3.28
2023-02-19T09:08:40.590Z,4.93
2023-02-19T09:11:07.623Z,5.40
2023-02-19T09:13:34.637Z,5.03
2023-02-19T09:16:04.080Z,4.10
2023-02-19T09:18:33.506Z,4.28
2023-02-19T09:21:02.339Z,3.92
2023-02-19T09:23:29.481Z,3.65
2023-02-19T09:26:00.644Z,3.28
2023-02-19T09:28:28.326Z,3.58
2023-02-19T09:30:55.552Z,3.75
2023-02-19T09:33:22.814Z,3.28
2023-02-19T09:35:49.766Z,3.13
2023-02-19T09:38:16.695Z,3.08
2023-02-19T09:40:43.775Z,3.63
2023-02-19T09:43:18.124Z,4.03
2023-02-19T09:45:45.081Z,4.00
2023-02-19T09:48:12.895Z,2.95
2023-02-19T09:50:44.970Z,3.38
2023-02-19T09:53:20.349Z,3.50
2023-02-19T09:58:32.275Z,4.05
2023-02-19T10:01:02.257Z,4.27
2023-02-19T10:03:34.533Z,3.67
2023-02-19T10:06:06.383Z,3.92
2023-02-19T10:08:38.011Z,3.30
2023-02-19T10:11:06.816Z,10.85
2023-02-19T10:13:37.685Z,3.83
2023-02-19T10:16:07.992Z,3.30
2023-02-19T10:18:41.412Z,3.50
2023-02-19T10:21:22.105Z,2.90
2023-02-19T10:24:00.202Z,3.17
2023-02-19T10:26:28.946Z,3.13
2023-02-19T10:28:55.918Z,2.50
2023-02-19T10:31:26.351Z,2.85
2023-02-19T10:33:54.959Z,2.58
2023-02-19T10:36:32.154Z,3.22
2023-02-19T10:39:02.070Z,3.10
2023-02-19T10:41:30.055Z,2.35
2023-02-19T10:44:21.601Z,2.83
2023-02-19T10:46:52.005Z,3.03
2023-02-19T10:49:28.298Z,3.17
2023-02-19T10:51:58.228Z,2.40
2023-02-19T10:54:36.249Z,2.97
2023-02-19T10:57:15.805Z,2.65
2023-02-19T10:59:50.981Z,3.10
2023-02-19T11:02:20.452Z,2.45
2023-02-19T11:05:09.390Z,2.88
2023-02-19T11:07:37.705Z,2.28
2023-02-19T11:10:07.170Z,2.78
2023-02-19T11:12:35.355Z,2.90
2023-02-19T11:15:38.764Z,3.20
2023-02-19T11:18:14.958Z,2.60
2023-02-19T11:21:04.169Z,2.58
2023-02-19T11:23:36.138Z,2.67
2023-02-19T11:26:19.704Z,3.58
2023-02-19T11:28:57.033Z,2.35
2023-02-19T11:31:33.172Z,2.33
2023-02-19T11:34:01.389Z,2.28
2023-02-19T11:36:36.684Z,2.55
2023-02-19T11:39:15.898Z,2.75
2023-02-19T11:41:55.743Z,2.20
2023-02-19T11:44:41.852Z,2.92
2023-02-19T11:47:27.501Z,2.50
2023-02-19T11:50:01.051Z,2.15
2023-02-19T11:52:50.302Z,2.17
2023-02-19T11:55:39.794Z,2.38
2023-02-19T11:58:44.888Z,2.78
2023-02-19T12:01:46.830Z,2.58
2023-02-19T12:04:51.813Z,3.25
2023-02-19T12:07:23.117Z,3.00
2023-02-19T12:10:10.557Z,2.80
2023-02-19T12:12:37.973Z,3.00
2023-02-19T12:15:42.517Z,3.20
2023-02-19T12:18:46.693Z,3.20
2023-02-19T12:21:33.112Z,3.63
2023-02-19T12:24:25.557Z,3.50
2023-02-19T12:26:55.132Z,2.90
2023-02-19T12:29:41.033Z,3.30
2023-02-19T12:35:03.193Z,3.60
2023-02-19T12:38:08.929Z,3.15
2023-02-19T12:40:45.494Z,3.28
2023-02-19T12:43:21.873Z,3.50
2023-02-19T12:45:59.054Z,3.42
2023-02-19T12:49:04.070Z,3.67
2023-02-19T12:51:44.800Z,4.05
2023-02-19T12:54:27.050Z,3.85
2023-02-19T12:57:25.118Z,3.35
2023-02-19T12:59:57.809Z,3.78
2023-02-19T13:02:38.779Z,3.40
2023-02-19T13:05:35.130Z,3.85
2023-02-19T13:08:07.893Z,4.25
2023-02-19T13:10:56.731Z,3.83
2023-02-19T13:13:34.711Z,3.38
2023-02-19T13:16:13.914Z,4.50
2023-02-19T13:18:58.367Z,3.70
2023-02-19T13:21:48.959Z,4.00
2023-02-19T13:24:23.408Z,4.25
2023-02-19T13:27:18.202Z,3.92
2023-02-19T13:29:57.827Z,3.90
2023-02-19T13:32:54.610Z,4.30
2023-02-19T13:35:47.595Z,4.80
2023-02-19T13:38:15.769Z,4.07
2023-02-19T13:40:54.722Z,3.47
2023-02-19T13:43:38.703Z,3.80
2023-02-19T13:46:10.697Z,4.10
2023-02-19T13:48:40.467Z,4.30
2023-02-19T13:51:16.864Z,4.60
2023-02-19T13:53:48.090Z,4.63
2023-02-19T13:56:30.379Z,5.32
2023-02-19T13:59:12.669Z,4.57
2023-02-19T14:02:02.785Z,3.95
2023-02-19T14:04:43.856Z,5.65
2023-02-19T14:07:10.990Z,4.43
2023-02-19T14:09:39.572Z,5.43
2023-02-19T14:12:15.048Z,4.43
2023-02-19T14:14:49.330Z,4.00
2023-02-19T14:17:39.880Z,5.40
2023-02-19T14:20:09.955Z,3.78
2023-02-19T14:22:46.663Z,3.85
2023-02-19T14:25:29.051Z,4.53
2023-02-19T14:28:17.271Z,5.53
2023-02-19T14:31:05.881Z,3.95
2023-02-19T14:33:40.379Z,3.80
2023-02-19T14:36:44.483Z,5.30
2023-02-19T14:39:36.630Z,3.47
2023-02-19T14:42:14.298Z,5.90
2023-02-19T14:44:51.408Z,3.22
2023-02-19T14:47:24.476Z,3.78
2023-02-19T14:50:00.327Z,3.53
2023-02-19T14:52:43.663Z,3.75
2023-02-19T14:55:28.395Z,3.38
2023-02-19T14:57:59.028Z,3.83
2023-02-19T15:00:33.448Z,3.97
2023-02-19T15:03:02.565Z,3.08
2023-02-19T15:05:37.366Z,3.25
2023-02-19T15:08:10.072Z,3.92
2023-02-19T15:10:38.563Z,2.97
2023-02-19T15:13:12.452Z,3.80
2023-02-19T15:15:44.898Z,2.90
2023-02-19T15:18:21.517Z,3.58
2023-02-19T15:20:49.594Z,2.85
2023-02-19T15:23:23.825Z,3.60
2023-02-19T15:25:51.471Z,3.40
2023-02-19T15:28:31.174Z,3.30
2023-02-19T15:30:58.344Z,3.22
2023-02-19T15:33:29.902Z,3.38
2023-02-19T15:36:01.529Z,3.63
2023-02-19T15:38:29.745Z,2.95
2023-02-19T15:40:58.163Z,3.60
2023-02-19T15:43:34.958Z,3.75
2023-02-19T15:46:19.384Z,4.35
2023-02-19T15:48:58.688Z,3.67
2023-02-19T15:51:32.577Z,3.50
2023-02-19T15:54:12.022Z,3.20
2023-02-19T15:56:42.404Z,3.42
2023-02-19T15:59:40.833Z,3.58
2023-02-19T16:02:13.357Z,3.30
2023-02-19T16:04:42.575Z,3.60
2023-02-19T16:07:25.739Z,2.80
2023-02-19T16:10:22.709Z,3.20
2023-02-19T16:13:00.773Z,3.63
2023-02-19T16:15:30.420Z,4.05
2023-02-19T16:17:59.034Z,2.83
2023-02-19T16:20:32.102Z,3.45
2023-02-19T16:23:11.924Z,3.40
2023-02-19T16:25:44.864Z,3.50
2023-02-19T16:28:21.559Z,3.67
2023-02-19T16:30:56.214Z,3.55
2023-02-19T16:33:42.676Z,3.70
2023-02-19T16:36:36.996Z,3.95
2023-02-19T16:39:09.586Z,3.53
2023-02-19T16:41:39.686Z,3.70
2023-02-19T16:44:21.930Z,3.70
2023-02-19T16:46:58.531Z,4.22
2023-02-19T16:49:25.477Z,5.18
2023-02-19T16:51:54.149Z,4.78
2023-02-19T16:54:22.517Z,4.53
2023-02-19T16:56:49.460Z,4.70
2023-02-19T16:59:17.669Z,5.35
2023-02-19T17:01:44.754Z,4.85
2023-02-19T17:04:14.263Z,4.28
2023-02-19T17:06:41.800Z,4.60
2023-02-19T17:09:10.320Z,4.15
2023-02-19T17:11:37.393Z,4.20
2023-02-19T17:14:04.677Z,4.57
2023-02-19T17:16:40.219Z,4.43
2023-02-19T17:19:16.821Z,4.47
2023-02-19T17:21:45.606Z,6.35
2023-02-19T17:24:12.692Z,4.85
2023-02-19T17:26:39.785Z,3.92
2023-02-19T17:29:09.480Z,4.38
2023-02-19T17:31:36.633Z,4.03
2023-02-19T17:34:03.810Z,4.45
2023-02-19T17:36:32.759Z,4.55
2023-02-19T17:39:02.121Z,4.30
2023-02-19T17:41:29.648Z,4.32
2023-02-19T17:43:59.934Z,4.80
2023-02-19T17:46:27.741Z,4.78
2023-02-19T17:48:55.249Z,4.80
2023-02-19T17:51:22.507Z,4.93
2023-02-19T17:53:49.878Z,5.30
2023-02-19T17:56:22.199Z,5.57
2023-02-19T17:58:49.446Z,5.30
2023-02-19T18:01:16.956Z,5.72
2023-02-19T18:03:44.360Z,5.88
2023-02-19T18:06:11.895Z,5.70
2023-02-19T18:08:39.659Z,5.70
2023-02-19T18:11:09.770Z,7.00
2023-02-19T18:13:39.724Z,6.25
2023-02-19T18:16:07.018Z,7.30
2023-02-19T18:18:34.308Z,6.63
2023-02-19T18:21:01.339Z,6.47
2023-02-19T18:23:28.380Z,7.53
2023-02-19T18:25:55.354Z,6.88
2023-02-19T18:28:22.396Z,6.07
2023-02-19T18:30:49.528Z,6.30
2023-02-19T18:33:16.647Z,5.95
2023-02-19T18:35:43.683Z,6.10
2023-02-19T18:38:10.705Z,6.30
2023-02-19T18:40:37.699Z,6.25
2023-02-19T18:43:05.866Z,6.18
2023-02-19T18:45:35.682Z,6.10
2023-02-19T18:48:03.462Z,5.57
2023-02-19T18:50:30.656Z,5.95
2023-02-19T18:52:57.760Z,6.97
2023-02-19T18:55:24.819Z,7.43
2023-02-19T18:57:51.901Z,7.32
2023-02-19T19:00:22.859Z,7.65
2023-02-19T19:02:50.944Z,6.80
2023-02-19T19:05:23.254Z,7.72
2023-02-19T19:07:55.435Z,6.85
2023-02-19T19:10:24.178Z,6.50
2023-02-19T19:12:51.924Z,7.50
2023-02-19T19:15:19.185Z,7.28
2023-02-19T19:17:47.348Z,7.30
2023-02-19T19:20:17.306Z,6.30
2023-02-19T19:22:44.715Z,6.20
2023-02-19T19:25:12.046Z,6.60
2023-02-19T19:27:39.553Z,6.28
2023-02-19T19:30:08.060Z,6.50
2023-02-19T19:32:35.299Z,5.57
2023-02-19T19:35:02.434Z,5.72
2023-02-19T19:37:29.442Z,5.95
2023-02-19T19:39:57.131Z,5.70
2023-02-19T19:42:24.550Z,6.32
2023-02-19T19:44:51.495Z,5.68
2023-02-19T19:47:18.718Z,5.60
2023-02-19T19:49:47.394Z,5.80
2023-02-19T19:52:14.604Z,5.55
2023-02-19T19:54:44.962Z,6.53
2023-02-19T19:57:12.348Z,6.85
2023-02-19T19:59:39.656Z,7.10
2023-02-19T20:02:08.385Z,8.05
2023-02-19T20:04:35.658Z,8.05
2023-02-19T20:07:02.809Z,7.57
2023-02-19T20:09:30.052Z,8.10
2023-02-19T20:11:57.066Z,8.07
2023-02-19T20:14:25.357Z,7.57
2023-02-19T20:16:53.449Z,8.57
2023-02-19T20:19:21.154Z,8.32
2023-02-19T20:21:51.373Z,8.43
2023-02-19T20:24:24.582Z,8.43
2023-02-19T20:26:54.479Z,8.00
2023-02-19T20:29:22.001Z,8.65
2023-02-19T20:31:50.296Z,8.88
2023-02-19T20:34:18.258Z,9.45
2023-02-19T20:36:46.674Z,9.00
2023-02-19T20:39:16.014Z,7.80
2023-02-19T20:41:51.050Z,8.55
2023-02-19T20:44:19.080Z,7.95
2023-02-19T20:46:48.981Z,8.75
2023-02-19T20:49:17.852Z,8.65
2023-02-19T20:51:49.890Z,7.95
2023-02-19T20:54:18.426Z,7.88
2023-02-19T20:56:46.764Z,8.48
2023-02-19T20:59:15.220Z,8.07
2023-02-19T21:01:43.048Z,7.95
2023-02-19T21:04:10.872Z,8.95
2023-02-19T21:06:37.903Z,9.00
2023-02-19T21:09:05.842Z,9.60
2023-02-19T21:11:33.252Z,8.90
2023-02-19T21:14:00.400Z,9.32
2023-02-19T21:16:29.264Z,9.23
2023-02-19T21:18:57.251Z,8.88
2023-02-19T21:21:26.577Z,8.93
2023-02-19T21:23:59.034Z,9.43
2023-02-19T21:26:37.130Z,10.00
2023-02-19T21:29:06.952Z,10.15
2023-02-19T21:31:42.760Z,9.90
2023-02-19T21:34:11.935Z,10.05
2023-02-19T21:36:38.968Z,10.30
2023-02-19T21:39:07.974Z,9.90
2023-02-19T21:41:35.190Z,9.98
2023-02-19T21:44:02.738Z,10.60
2023-02-19T21:46:30.008Z,10.65
2023-02-19T21:48:57.445Z,9.75
2023-02-19T21:51:38.731Z,9.63
2023-02-19T21:54:07.615Z,10.85
2023-02-19T21:56:36.512Z,11.77
2023-02-19T21:59:03.920Z,11.38
2023-02-19T22:01:35.249Z,11.23
2023-02-19T22:04:02.562Z,10.30
2023-02-19T22:06:31.323Z,11.02
2023-02-19T22:08:59.561Z,10.15
2023-02-19T22:11:26.620Z,10.13
2023-02-19T22:13:55.337Z,11.07
2023-02-19T22:16:22.487Z,10.25
2023-02-19T22:18:51.369Z,11.15
2023-02-19T22:21:19.612Z,11.00
2023-02-19T22:23:48.280Z,11.75
2023-02-19T22:26:35.855Z,10.80
2023-02-19T22:29:07.407Z,11.27
2023-02-19T22:31:35.555Z,11.38
2023-02-19T22:34:03.028Z,10.82
2023-02-19T22:36:33.237Z,11.90
2023-02-19T22:39:01.370Z,12.02
2023-02-19T22:41:28.884Z,12.07
2023-02-19T22:43:57.952Z,12.27
2023-02-19T22:46:28.935Z,12.20
2023-02-19T22:48:56.370Z,12.57
2023-02-19T22:51:24.603Z,12.32
2023-02-19T22:53:54.293Z,13.02
2023-02-19T22:56:23.501Z,11.95
2023-02-19T22:58:50.945Z,13.05
2023-02-19T23:01:18.768Z,14.23
2023-02-19T23:03:53.685Z,12.32
2023-02-19T23:06:30.022Z,13.23
2023-02-19T23:09:02.064Z,13.38
2023-02-19T23:11:31.877Z,13.77
2023-02-19T23:13:59.203Z,14.55
2023-02-19T23:16:26.585Z,12.98
2023-02-19T23:18:54.111Z,13.10
2023-02-19T23:21:22.821Z,14.32
2023-02-19T23:23:49.952Z,15.48
2023-02-19T23:26:17.262Z,13.73
2023-02-19T23:28:47.693Z,13.55
2023-02-19T23:31:18.132Z,13.77
2023-02-19T23:33:45.917Z,14.05
2023-02-19T23:36:14.499Z,13.80
2023-02-19T23:38:47.173Z,14.35
2023-02-19T23:41:16.191Z,13.48
2023-02-19T23:43:45.260Z,14.15
2023-02-19T23:46:17.976Z,14.23
2023-02-19T23:48:48.533Z,14.75
2023-02-19T23:51:15.579Z,14.80
2023-02-19T23:53:42.766Z,15.80
2023-02-19T23:56:10.022Z,14.07
2023-02-19T23:58:36.995Z,14.55
